sensor_id;sensor_type;location;lat;lon;timestamp;P1;durP1;ratioP1;P2;durP2;ratioP2
9238;SDS011;4654;43.242;27.976;2022-07-03T00:01:22;3.05;;;2.10;;
9238;SDS011;4654;43.242;27.976;2022-07-03T00:03:49;3.60;;;2.38;;
9238;SDS011;4654;43.242;27.976;2022-07-03T00:06:18;3.83;;;2.65;;
9238;SDS011;4654;43.242;27.976;2022-07-03T00:08:45;3.78;;;2.25;;
9238;SDS011;4654;43.242;27.976;2022-07-03T00:11:11;2.38;;;2.17;;
9238;SDS011;4654;43.242;27.976;2022-07-03T00:13:38;5.70;;;2.42;;
9238;SDS011;4654;43.242;27.976;2022-07-03T00:16:05;4.38;;;2.17;;
9238;SDS011;4654;43.242;27.976;2022-07-03T00:18:32;3.25;;;2.60;;
9238;SDS011;4654;43.242;27.976;2022-07-03T00:21:00;3.80;;;2.70;;
9238;SDS011;4654;43.242;27.976;2022-07-03T00:23:44;4.45;;;2.80;;
9238;SDS011;4654;43.242;27.976;2022-07-03T00:26:13;3.17;;;2.55;;
9238;SDS011;4654;43.242;27.976;2022-07-03T00:28:40;4.45;;;3.20;;
9238;SDS011;4654;43.242;27.976;2022-07-03T00:31:07;6.32;;;3.10;;
9238;SDS011;4654;43.242;27.976;2022-07-03T00:33:37;5.75;;;3.00;;
9238;SDS011;4654;43.242;27.976;2022-07-03T00:36:05;5.18;;;3.20;;
9238;SDS011;4654;43.242;27.976;2022-07-03T00:38:34;6.35;;;3.58;;
9238;SDS011;4654;43.242;27.976;2022-07-03T00:41:01;6.13;;;3.35;;
9238;SDS011;4654;43.242;27.976;2022-07-03T00:43:29;6.57;;;3.60;;
9238;SDS011;4654;43.242;27.976;2022-07-03T00:46:02;4.45;;;3.45;;
9238;SDS011;4654;43.242;27.976;2022-07-03T00:48:33;5.05;;;3.50;;
9238;SDS011;4654;43.242;27.976;2022-07-03T00:51:03;3.90;;;3.38;;
9238;SDS011;4654;43.242;27.976;2022-07-03T00:53:36;5.07;;;3.67;;
9238;SDS011;4654;43.242;27.976;2022-07-03T00:56:03;3.92;;;3.63;;
9238;SDS011;4654;43.242;27.976;2022-07-03T00:58:31;4.32;;;3.88;;
9238;SDS011;4654;43.242;27.976;2022-07-03T01:01:00;4.88;;;3.63;;
9238;SDS011;4654;43.242;27.976;2022-07-03T01:03:27;5.05;;;3.78;;
9238;SDS011;4654;43.242;27.976;2022-07-03T01:05:59;6.82;;;4.30;;
9238;SDS011;4654;43.242;27.976;2022-07-03T01:08:34;4.60;;;4.20;;
9238;SDS011;4654;43.242;27.976;2022-07-03T01:11:08;6.45;;;4.28;;
9238;SDS011;4654;43.242;27.976;2022-07-03T01:13:43;5.13;;;4.10;;
9238;SDS011;4654;43.242;27.976;2022-07-03T01:16:19;4.93;;;4.25;;
9238;SDS011;4654;43.242;27.976;2022-07-03T01:18:52;5.15;;;4.63;;
9238;SDS011;4654;43.242;27.976;2022-07-03T01:21:23;5.78;;;4.43;;
9238;SDS011;4654;43.242;27.976;2022-07-03T01:24:16;5.50;;;4.43;;
9238;SDS011;4654;43.242;27.976;2022-07-03T01:26:57;6.43;;;5.05;;
9238;SDS011;4654;43.242;27.976;2022-07-03T01:29:31;10.02;;;5.15;;
9238;SDS011;4654;43.242;27.976;2022-07-03T01:32:04;7.03;;;4.90;;
9238;SDS011;4654;43.242;27.976;2022-07-03T01:34:34;5.95;;;5.28;;
9238;SDS011;4654;43.242;27.976;2022-07-03T01:37:05;9.23;;;5.32;;
9238;SDS011;4654;43.242;27.976;2022-07-03T01:39:35;5.55;;;4.97;;
9238;SDS011;4654;43.242;27.976;2022-07-03T01:42:07;6.57;;;4.85;;
9238;SDS011;4654;43.242;27.976;2022-07-03T01:44:35;6.85;;;5.05;;
9238;SDS011;4654;43.242;27.976;2022-07-03T01:47:06;7.20;;;5.10;;
9238;SDS011;4654;43.242;27.976;2022-07-03T01:49:33;8.00;;;5.00;;
9238;SDS011;4654;43.242;27.976;2022-07-03T01:52:02;6.70;;;5.13;;
9238;SDS011;4654;43.242;27.976;2022-07-03T01:54:31;7.22;;;5.15;;
9238;SDS011;4654;43.242;27.976;2022-07-03T01:57:00;6.25;;;4.63;;
9238;SDS011;4654;43.242;27.976;2022-07-03T01:59:29;6.15;;;5.57;;
9238;SDS011;4654;43.242;27.976;2022-07-03T02:01:58;6.47;;;4.68;;
9238;SDS011;4654;43.242;27.976;2022-07-03T02:04:36;6.65;;;6.00;;
9238;SDS011;4654;43.242;27.976;2022-07-03T02:07:21;5.68;;;5.18;;
9238;SDS011;4654;43.242;27.976;2022-07-03T02:09:57;6.97;;;5.80;;
9238;SDS011;4654;43.242;27.976;2022-07-03T02:12:33;7.00;;;6.35;;
9238;SDS011;4654;43.242;27.976;2022-07-03T02:15:07;7.40;;;5.85;;
9238;SDS011;4654;43.242;27.976;2022-07-03T02:17:36;8.75;;;6.40;;
9238;SDS011;4654;43.242;27.976;2022-07-03T02:20:05;7.75;;;6.60;;
9238;SDS011;4654;43.242;27.976;2022-07-03T02:22:34;7.38;;;6.50;;
9238;SDS011;4654;43.242;27.976;2022-07-03T02:25:04;7.30;;;6.55;;
9238;SDS011;4654;43.242;27.976;2022-07-03T02:27:32;8.25;;;6.78;;
9238;SDS011;4654;43.242;27.976;2022-07-03T02:30:10;10.75;;;6.85;;
9238;SDS011;4654;43.242;27.976;2022-07-03T02:32:40;8.15;;;7.25;;
9238;SDS011;4654;43.242;27.976;2022-07-03T02:35:10;7.00;;;6.40;;
9238;SDS011;4654;43.242;27.976;2022-07-03T02:37:39;7.50;;;6.80;;
9238;SDS011;4654;43.242;27.976;2022-07-03T02:40:14;8.35;;;7.03;;
9238;SDS011;4654;43.242;27.976;2022-07-03T02:42:48;8.35;;;6.88;;
9238;SDS011;4654;43.242;27.976;2022-07-03T02:45:32;7.53;;;6.63;;
9238;SDS011;4654;43.242;27.976;2022-07-03T02:48:07;8.93;;;6.25;;
9238;SDS011;4654;43.242;27.976;2022-07-03T02:50:38;9.13;;;6.93;;
9238;SDS011;4654;43.242;27.976;2022-07-03T02:53:09;7.97;;;6.63;;
9238;SDS011;4654;43.242;27.976;2022-07-03T02:55:43;7.50;;;6.70;;
9238;SDS011;4654;43.242;27.976;2022-07-03T02:58:20;7.82;;;6.05;;
9238;SDS011;4654;43.242;27.976;2022-07-03T03:00:57;7.63;;;5.63;;
9238;SDS011;4654;43.242;27.976;2022-07-03T03:03:26;8.23;;;5.75;;
9238;SDS011;4654;43.242;27.976;2022-07-03T03:05:56;6.57;;;5.72;;
9238;SDS011;4654;43.242;27.976;2022-07-03T03:08:31;5.95;;;5.43;;
9238;SDS011;4654;43.242;27.976;2022-07-03T03:11:05;7.60;;;5.65;;
9238;SDS011;4654;43.242;27.976;2022-07-03T03:13:33;6.15;;;5.63;;
9238;SDS011;4654;43.242;27.976;2022-07-03T03:16:05;6.57;;;5.82;;
9238;SDS011;4654;43.242;27.976;2022-07-03T03:18:34;8.18;;;5.68;;
9238;SDS011;4654;43.242;27.976;2022-07-03T03:21:02;5.63;;;4.68;;
9238;SDS011;4654;43.242;27.976;2022-07-03T03:23:33;7.55;;;5.47;;
9238;SDS011;4654;43.242;27.976;2022-07-03T03:26:08;5.40;;;4.97;;
9238;SDS011;4654;43.242;27.976;2022-07-03T03:28:35;5.13;;;4.72;;
9238;SDS011;4654;43.242;27.976;2022-07-03T03:31:02;6.15;;;5.10;;
9238;SDS011;4654;43.242;27.976;2022-07-03T03:33:35;6.85;;;4.63;;
9238;SDS011;4654;43.242;27.976;2022-07-03T03:36:05;4.93;;;4.43;;
9238;SDS011;4654;43.242;27.976;2022-07-03T03:38:33;4.65;;;4.25;;
9238;SDS011;4654;43.242;27.976;2022-07-03T03:41:01;6.15;;;3.92;;
9238;SDS011;4654;43.242;27.976;2022-07-03T03:43:29;4.15;;;3.85;;
9238;SDS011;4654;43.242;27.976;2022-07-03T03:45:56;4.45;;;3.70;;
9238;SDS011;4654;43.242;27.976;2022-07-03T03:48:25;4.88;;;3.47;;
9238;SDS011;4654;43.242;27.976;2022-07-03T03:50:53;5.15;;;3.90;;
9238;SDS011;4654;43.242;27.976;2022-07-03T03:53:20;4.20;;;3.65;;
9238;SDS011;4654;43.242;27.976;2022-07-03T03:55:53;5.72;;;3.80;;
9238;SDS011;4654;43.242;27.976;2022-07-03T03:58:25;3.50;;;3.20;;
9238;SDS011;4654;43.242;27.976;2022-07-03T04:00:52;4.65;;;3.38;;
9238;SDS011;4654;43.242;27.976;2022-07-03T04:03:19;9.43;;;3.60;;
9238;SDS011;4654;43.242;27.976;2022-07-03T04:05:47;4.05;;;3.65;;
9238;SDS011;4654;43.242;27.976;2022-07-03T04:08:14;4.10;;;3.35;;
9238;SDS011;4654;43.242;27.976;2022-07-03T04:10:41;4.35;;;3.30;;
9238;SDS011;4654;43.242;27.976;2022-07-03T04:13:08;3.65;;;3.00;;
9238;SDS011;4654;43.242;27.976;2022-07-03T04:15:34;4.55;;;2.60;;
9238;SDS011;4654;43.242;27.976;2022-07-03T04:18:01;6.60;;;3.03;;
9238;SDS011;4654;43.242;27.976;2022-07-03T04:20:28;4.43;;;3.25;;
9238;SDS011;4654;43.242;27.976;2022-07-03T04:22:58;6.55;;;2.90;;
9238;SDS011;4654;43.242;27.976;2022-07-03T04:25:25;4.05;;;2.60;;
9238;SDS011;4654;43.242;27.976;2022-07-03T04:27:52;4.07;;;2.95;;
9238;SDS011;4654;43.242;27.976;2022-07-03T04:30:19;5.75;;;2.88;;
9238;SDS011;4654;43.242;27.976;2022-07-03T04:32:46;4.18;;;2.72;;
9238;SDS011;4654;43.242;27.976;2022-07-03T04:35:14;6.47;;;2.92;;
9238;SDS011;4654;43.242;27.976;2022-07-03T04:37:41;2.85;;;2.60;;
9238;SDS011;4654;43.242;27.976;2022-07-03T04:40:11;6.00;;;2.72;;
9238;SDS011;4654;43.242;27.976;2022-07-03T04:42:38;2.83;;;2.22;;
9238;SDS011;4654;43.242;27.976;2022-07-03T04:45:06;3.63;;;2.40;;
9238;SDS011;4654;43.242;27.976;2022-07-03T04:47:33;3.25;;;2.30;;
9238;SDS011;4654;43.242;27.976;2022-07-03T04:50:00;4.63;;;2.10;;
9238;SDS011;4654;43.242;27.976;2022-07-03T04:52:27;2.78;;;2.00;;
9238;SDS011;4654;43.242;27.976;2022-07-03T04:54:54;2.67;;;2.13;;
9238;SDS011;4654;43.242;27.976;2022-07-03T04:57:22;2.40;;;2.20;;
9238;SDS011;4654;43.242;27.976;2022-07-03T04:59:49;9.00;;;2.10;;
9238;SDS011;4654;43.242;27.976;2022-07-03T05:02:16;3.35;;;2.17;;
9238;SDS011;4654;43.242;27.976;2022-07-03T05:04:43;4.30;;;2.25;;
9238;SDS011;4654;43.242;27.976;2022-07-03T05:07:10;3.38;;;2.25;;
9238;SDS011;4654;43.242;27.976;2022-07-03T05:09:37;2.30;;;2.10;;
9238;SDS011;4654;43.242;27.976;2022-07-03T05:12:04;3.00;;;2.25;;
9238;SDS011;4654;43.242;27.976;2022-07-03T05:14:33;2.78;;;2.40;;
9238;SDS011;4654;43.242;27.976;2022-07-03T05:17:00;2.42;;;2.22;;
9238;SDS011;4654;43.242;27.976;2022-07-03T05:19:27;2.40;;;2.20;;
9238;SDS011;4654;43.242;27.976;2022-07-03T05:21:54;4.78;;;1.85;;
9238;SDS011;4654;43.242;27.976;2022-07-03T05:24:21;3.42;;;2.13;;
9238;SDS011;4654;43.242;27.976;2022-07-03T05:26:49;2.78;;;2.17;;
9238;SDS011;4654;43.242;27.976;2022-07-03T05:29:16;4.07;;;1.80;;
9238;SDS011;4654;43.242;27.976;2022-07-03T05:31:44;2.30;;;2.08;;
9238;SDS011;4654;43.242;27.976;2022-07-03T05:34:12;1.80;;;1.70;;
9238;SDS011;4654;43.242;27.976;2022-07-03T05:36:39;2.08;;;1.75;;
9238;SDS011;4654;43.242;27.976;2022-07-03T05:39:06;3.60;;;1.70;;
9238;SDS011;4654;43.242;27.976;2022-07-03T05:41:50;5.20;;;2.05;;
9238;SDS011;4654;43.242;27.976;2022-07-03T05:44:17;4.63;;;2.10;;
9238;SDS011;4654;43.242;27.976;2022-07-03T05:46:45;2.33;;;2.10;;
9238;SDS011;4654;43.242;27.976;2022-07-03T05:49:12;4.85;;;2.10;;
9238;SDS011;4654;43.242;27.976;2022-07-03T05:51:39;2.20;;;2.00;;
9238;SDS011;4654;43.242;27.976;2022-07-03T05:54:06;3.72;;;2.15;;
9238;SDS011;4654;43.242;27.976;2022-07-03T05:56:33;3.38;;;2.00;;
9238;SDS011;4654;43.242;27.976;2022-07-03T05:59:00;5.18;;;2.17;;
9238;SDS011;4654;43.242;27.976;2022-07-03T06:01:27;4.18;;;2.20;;
9238;SDS011;4654;43.242;27.976;2022-07-03T06:03:55;4.53;;;1.92;;
9238;SDS011;4654;43.242;27.976;2022-07-03T06:06:22;6.15;;;1.85;;
9238;SDS011;4654;43.242;27.976;2022-07-03T06:08:49;2.47;;;1.70;;
9238;SDS011;4654;43.242;27.976;2022-07-03T06:11:16;3.25;;;2.10;;
9238;SDS011;4654;43.242;27.976;2022-07-03T06:13:44;5.32;;;1.70;;
9238;SDS011;4654;43.242;27.976;2022-07-03T06:16:11;1.75;;;1.63;;
9238;SDS011;4654;43.242;27.976;2022-07-03T06:18:37;4.20;;;1.90;;
9238;SDS011;4654;43.242;27.976;2022-07-03T06:21:06;3.63;;;1.70;;
9238;SDS011;4654;43.242;27.976;2022-07-03T06:23:33;2.30;;;1.77;;
9238;SDS011;4654;43.242;27.976;2022-07-03T06:25:59;2.75;;;1.67;;
9238;SDS011;4654;43.242;27.976;2022-07-03T06:28:26;3.72;;;1.92;;
9238;SDS011;4654;43.242;27.976;2022-07-03T06:30:53;2.25;;;2.00;;
9238;SDS011;4654;43.242;27.976;2022-07-03T06:33:20;3.67;;;1.63;;
9238;SDS011;4654;43.242;27.976;2022-07-03T06:35:48;3.42;;;1.80;;
9238;SDS011;4654;43.242;27.976;2022-07-03T06:38:16;3.47;;;1.83;;
9238;SDS011;4654;43.242;27.976;2022-07-03T06:40:43;2.13;;;1.75;;
9238;SDS011;4654;43.242;27.976;2022-07-03T06:43:10;3.83;;;1.80;;
9238;SDS011;4654;43.242;27.976;2022-07-03T06:45:37;3.00;;;1.73;;
9238;SDS011;4654;43.242;27.976;2022-07-03T06:48:04;4.15;;;1.75;;
9238;SDS011;4654;43.242;27.976;2022-07-03T06:50:31;2.25;;;2.00;;
9238;SDS011;4654;43.242;27.976;2022-07-03T06:52:58;2.78;;;1.88;;
9238;SDS011;4654;43.242;27.976;2022-07-03T06:55:27;2.80;;;2.00;;
9238;SDS011;4654;43.242;27.976;2022-07-03T06:57:54;5.97;;;2.38;;
9238;SDS011;4654;43.242;27.976;2022-07-03T07:00:21;2.53;;;2.00;;
9238;SDS011;4654;43.242;27.976;2022-07-03T07:02:47;2.90;;;2.00;;
9238;SDS011;4654;43.242;27.976;2022-07-03T07:05:14;2.50;;;2.30;;
9238;SDS011;4654;43.242;27.976;2022-07-03T07:07:41;3.15;;;1.73;;
9238;SDS011;4654;43.242;27.976;2022-07-03T07:10:08;4.35;;;2.03;;
9238;SDS011;4654;43.242;27.976;2022-07-03T07:12:37;5.30;;;2.00;;
9238;SDS011;4654;43.242;27.976;2022-07-03T07:15:04;4.82;;;2.15;;
9238;SDS011;4654;43.242;27.976;2022-07-03T07:17:31;2.78;;;1.77;;
9238;SDS011;4654;43.242;27.976;2022-07-03T07:19:58;2.95;;;2.20;;
9238;SDS011;4654;43.242;27.976;2022-07-03T07:22:25;2.00;;;1.90;;
9238;SDS011;4654;43.242;27.976;2022-07-03T07:24:52;2.30;;;1.80;;
9238;SDS011;4654;43.242;27.976;2022-07-03T07:27:19;6.85;;;2.30;;
9238;SDS011;4654;43.242;27.976;2022-07-03T07:29:47;2.38;;;2.17;;
9238;SDS011;4654;43.242;27.976;2022-07-03T07:32:14;2.60;;;2.40;;
9238;SDS011;4654;43.242;27.976;2022-07-03T07:34:41;2.45;;;2.20;;
9238;SDS011;4654;43.242;27.976;2022-07-03T07:37:08;2.50;;;2.15;;
9238;SDS011;4654;43.242;27.976;2022-07-03T07:39:35;2.90;;;2.15;;
9238;SDS011;4654;43.242;27.976;2022-07-03T07:42:02;3.10;;;2.45;;
9238;SDS011;4654;43.242;27.976;2022-07-03T07:44:29;4.97;;;2.47;;
9238;SDS011;4654;43.242;27.976;2022-07-03T07:46:57;4.30;;;2.20;;
9238;SDS011;4654;43.242;27.976;2022-07-03T07:49:24;3.53;;;2.28;;
9238;SDS011;4654;43.242;27.976;2022-07-03T07:51:51;2.00;;;1.90;;
9238;SDS011;4654;43.242;27.976;2022-07-03T07:54:18;4.18;;;2.10;;
9238;SDS011;4654;43.242;27.976;2022-07-03T07:56:45;4.10;;;2.25;;
9238;SDS011;4654;43.242;27.976;2022-07-03T07:59:12;2.20;;;2.00;;
9238;SDS011;4654;43.242;27.976;2022-07-03T08:01:39;2.67;;;2.47;;
9238;SDS011;4654;43.242;27.976;2022-07-03T08:04:24;2.53;;;2.30;;
9238;SDS011;4654;43.242;27.976;2022-07-03T08:07:08;1.85;;;1.75;;
9238;SDS011;4654;43.242;27.976;2022-07-03T08:09:35;3.25;;;2.20;;
9238;SDS011;4654;43.242;27.976;2022-07-03T08:12:02;3.85;;;2.55;;
9238;SDS011;4654;43.242;27.976;2022-07-03T08:14:30;5.47;;;2.13;;
9238;SDS011;4654;43.242;27.976;2022-07-03T08:16:57;2.80;;;2.60;;
9238;SDS011;4654;43.242;27.976;2022-07-03T08:19:25;5.70;;;2.42;;
9238;SDS011;4654;43.242;27.976;2022-07-03T08:21:52;3.75;;;2.20;;
9238;SDS011;4654;43.242;27.976;2022-07-03T08:24:19;4.07;;;2.42;;
9238;SDS011;4654;43.242;27.976;2022-07-03T08:26:46;2.22;;;2.03;;
9238;SDS011;4654;43.242;27.976;2022-07-03T08:29:12;4.95;;;2.50;;
9238;SDS011;4654;43.242;27.976;2022-07-03T08:31:39;4.03;;;2.30;;
9238;SDS011;4654;43.242;27.976;2022-07-03T08:34:06;3.22;;;2.10;;
9238;SDS011;4654;43.242;27.976;2022-07-03T08:36:35;2.85;;;2.20;;
9238;SDS011;4654;43.242;27.976;2022-07-03T08:39:02;7.10;;;2.00;;
9238;SDS011;4654;43.242;27.976;2022-07-03T08:41:29;3.53;;;2.20;;
9238;SDS011;4654;43.242;27.976;2022-07-03T08:43:58;3.65;;;2.08;;
9238;SDS011;4654;43.242;27.976;2022-07-03T08:46:26;3.45;;;1.85;;
9238;SDS011;4654;43.242;27.976;2022-07-03T08:48:56;3.33;;;2.40;;
9238;SDS011;4654;43.242;27.976;2022-07-03T08:51:25;3.33;;;2.40;;
9238;SDS011;4654;43.242;27.976;2022-07-03T08:53:54;4.03;;;2.15;;
9238;SDS011;4654;43.242;27.976;2022-07-03T08:56:21;5.35;;;2.20;;
9238;SDS011;4654;43.242;27.976;2022-07-03T08:58:49;2.42;;;2.05;;
9238;SDS011;4654;43.242;27.976;2022-07-03T09:01:17;4.95;;;2.22;;
9238;SDS011;4654;43.242;27.976;2022-07-03T09:03:46;5.65;;;2.17;;
9238;SDS011;4654;43.242;27.976;2022-07-03T09:06:14;9.65;;;2.20;;
9238;SDS011;4654;43.242;27.976;2022-07-03T09:08:41;4.05;;;2.00;;
9238;SDS011;4654;43.242;27.976;2022-07-03T09:11:11;2.20;;;2.00;;
9238;SDS011;4654;43.242;27.976;2022-07-03T09:13:38;2.25;;;2.08;;
9238;SDS011;4654;43.242;27.976;2022-07-03T09:16:05;3.03;;;2.03;;
9238;SDS011;4654;43.242;27.976;2022-07-03T09:18:40;5.70;;;2.42;;
9238;SDS011;4654;43.242;27.976;2022-07-03T09:21:08;4.22;;;2.30;;
9238;SDS011;4654;43.242;27.976;2022-07-03T09:23:35;4.32;;;2.28;;
9238;SDS011;4654;43.242;27.976;2022-07-03T09:26:03;2.80;;;1.85;;
9238;SDS011;4654;43.242;27.976;2022-07-03T09:31:18;3.30;;;1.90;;
9238;SDS011;4654;43.242;27.976;2022-07-03T09:33:50;2.50;;;2.20;;
9238;SDS011;4654;43.242;27.976;2022-07-03T09:36:18;5.72;;;2.10;;
9238;SDS011;4654;43.242;27.976;2022-07-03T09:38:47;3.47;;;2.00;;
9238;SDS011;4654;43.242;27.976;2022-07-03T09:41:13;2.58;;;1.88;;
9238;SDS011;4654;43.242;27.976;2022-07-03T09:43:41;1.80;;;1.70;;
9238;SDS011;4654;43.242;27.976;2022-07-03T09:46:10;4.05;;;2.10;;
9238;SDS011;4654;43.242;27.976;2022-07-03T09:48:38;3.63;;;1.92;;
9238;SDS011;4654;43.242;27.976;2022-07-03T09:51:09;2.10;;;1.90;;
9238;SDS011;4654;43.242;27.976;2022-07-03T09:53:54;2.20;;;2.10;;
9238;SDS011;4654;43.242;27.976;2022-07-03T09:56:23;3.15;;;1.98;;
9238;SDS011;4654;43.242;27.976;2022-07-03T09:59:07;3.72;;;1.92;;
9238;SDS011;4654;43.242;27.976;2022-07-03T10:01:37;2.45;;;2.00;;
9238;SDS011;4654;43.242;27.976;2022-07-03T10:04:12;2.30;;;1.80;;
9238;SDS011;4654;43.242;27.976;2022-07-03T10:06:47;2.75;;;2.35;;
9238;SDS011;4654;43.242;27.976;2022-07-03T10:09:19;2.30;;;2.10;;
9238;SDS011;4654;43.242;27.976;2022-07-03T10:11:47;2.67;;;2.08;;
9238;SDS011;4654;43.242;27.976;2022-07-03T10:14:15;2.30;;;2.10;;
9238;SDS011;4654;43.242;27.976;2022-07-03T10:16:44;1.90;;;1.80;;
9238;SDS011;4654;43.242;27.976;2022-07-03T10:19:12;2.85;;;2.33;;
9238;SDS011;4654;43.242;27.976;2022-07-03T10:21:41;3.30;;;2.25;;
9238;SDS011;4654;43.242;27.976;2022-07-03T10:24:08;16.48;;;8.63;;
9238;SDS011;4654;43.242;27.976;2022-07-03T10:26:38;7.53;;;2.20;;
9238;SDS011;4654;43.242;27.976;2022-07-03T10:29:08;2.45;;;1.95;;
9238;SDS011;4654;43.242;27.976;2022-07-03T10:31:40;6.00;;;3.10;;
9238;SDS011;4654;43.242;27.976;2022-07-03T10:34:10;2.40;;;2.10;;
9238;SDS011;4654;43.242;27.976;2022-07-03T10:36:38;5.68;;;2.10;;
9238;SDS011;4654;43.242;27.976;2022-07-03T10:39:06;1.83;;;1.70;;
9238;SDS011;4654;43.242;27.976;2022-07-03T10:41:35;2.65;;;1.98;;
9238;SDS011;4654;43.242;27.976;2022-07-03T10:44:24;3.60;;;1.80;;
9238;SDS011;4654;43.242;27.976;2022-07-03T10:47:15;3.92;;;2.10;;
9238;SDS011;4654;43.242;27.976;2022-07-03T10:50:13;3.60;;;1.90;;
9238;SDS011;4654;43.242;27.976;2022-07-03T10:52:41;3.50;;;1.85;;
9238;SDS011;4654;43.242;27.976;2022-07-03T10:55:09;2.33;;;2.00;;
9238;SDS011;4654;43.242;27.976;2022-07-03T10:57:38;4.30;;;2.03;;
9238;SDS011;4654;43.242;27.976;2022-07-03T11:00:16;3.58;;;2.20;;
9238;SDS011;4654;43.242;27.976;2022-07-03T11:02:47;6.05;;;2.03;;
9238;SDS011;4654;43.242;27.976;2022-07-03T11:05:16;7.95;;;2.03;;
9238;SDS011;4654;43.242;27.976;2022-07-03T11:08:05;4.13;;;1.73;;
9238;SDS011;4654;43.242;27.976;2022-07-03T11:10:34;8.15;;;2.30;;
9238;SDS011;4654;43.242;27.976;2022-07-03T11:13:15;2.42;;;1.98;;
9238;SDS011;4654;43.242;27.976;2022-07-03T11:15:46;2.22;;;2.03;;
9238;SDS011;4654;43.242;27.976;2022-07-03T11:18:20;4.00;;;2.10;;
9238;SDS011;4654;43.242;27.976;2022-07-03T11:24:03;3.95;;;1.70;;
9238;SDS011;4654;43.242;27.976;2022-07-03T11:26:40;2.40;;;1.73;;
9238;SDS011;4654;43.242;27.976;2022-07-03T11:29:07;2.17;;;1.98;;
9238;SDS011;4654;43.242;27.976;2022-07-03T11:31:52;2.58;;;1.85;;
9238;SDS011;4654;43.242;27.976;2022-07-03T11:34:20;4.53;;;1.98;;
9238;SDS011;4654;43.242;27.976;2022-07-03T11:36:47;3.90;;;2.38;;
9238;SDS011;4654;43.242;27.976;2022-07-03T11:39:14;3.10;;;2.03;;
9238;SDS011;4654;43.242;27.976;2022-07-03T11:41:45;3.42;;;2.10;;
9238;SDS011;4654;43.242;27.976;2022-07-03T11:44:17;2.22;;;2.03;;
9238;SDS011;4654;43.242;27.976;2022-07-03T11:46:49;6.88;;;1.77;;
9238;SDS011;4654;43.242;27.976;2022-07-03T11:49:17;7.60;;;2.00;;
9238;SDS011;4654;43.242;27.976;2022-07-03T11:51:54;5.05;;;1.85;;
9238;SDS011;4654;43.242;27.976;2022-07-03T11:54:23;4.07;;;1.77;;
9238;SDS011;4654;43.242;27.976;2022-07-03T11:56:50;4.40;;;2.30;;
9238;SDS011;4654;43.242;27.976;2022-07-03T11:59:17;5.32;;;1.90;;
9238;SDS011;4654;43.242;27.976;2022-07-03T12:01:44;5.15;;;1.92;;
9238;SDS011;4654;43.242;27.976;2022-07-03T12:04:13;4.47;;;1.90;;
9238;SDS011;4654;43.242;27.976;2022-07-03T12:06:43;8.93;;;1.80;;
9238;SDS011;4654;43.242;27.976;2022-07-03T12:09:22;6.72;;;2.22;;
9238;SDS011;4654;43.242;27.976;2022-07-03T12:11:55;3.25;;;2.30;;
9238;SDS011;4654;43.242;27.976;2022-07-03T12:14:35;3.70;;;2.00;;
9238;SDS011;4654;43.242;27.976;2022-07-03T12:17:08;2.50;;;2.05;;
9238;SDS011;4654;43.242;27.976;2022-07-03T12:19:35;3.17;;;2.00;;
9238;SDS011;4654;43.242;27.976;2022-07-03T12:22:05;3.78;;;1.83;;
9238;SDS011;4654;43.242;27.976;2022-07-03T12:24:33;4.05;;;1.95;;
9238;SDS011;4654;43.242;27.976;2022-07-03T12:27:03;11.95;;;2.50;;
9238;SDS011;4654;43.242;27.976;2022-07-03T12:29:30;2.22;;;1.80;;
9238;SDS011;4654;43.242;27.976;2022-07-03T12:31:58;3.13;;;1.90;;
9238;SDS011;4654;43.242;27.976;2022-07-03T12:34:25;4.65;;;1.77;;
9238;SDS011;4654;43.242;27.976;2022-07-03T12:36:58;3.55;;;1.60;;
9238;SDS011;4654;43.242;27.976;2022-07-03T12:39:41;5.40;;;1.60;;
9238;SDS011;4654;43.242;27.976;2022-07-03T12:42:15;1.92;;;1.80;;
9238;SDS011;4654;43.242;27.976;2022-07-03T12:44:42;3.45;;;1.98;;
9238;SDS011;4654;43.242;27.976;2022-07-03T12:47:21;4.22;;;1.58;;
9238;SDS011;4654;43.242;27.976;2022-07-03T12:49:53;2.88;;;2.20;;
9238;SDS011;4654;43.242;27.976;2022-07-03T12:52:21;2.60;;;1.88;;
9238;SDS011;4654;43.242;27.976;2022-07-03T12:54:49;3.22;;;1.75;;
9238;SDS011;4654;43.242;27.976;2022-07-03T12:57:16;6.25;;;2.00;;
9238;SDS011;4654;43.242;27.976;2022-07-03T13:00:00;4.60;;;1.95;;
9238;SDS011;4654;43.242;27.976;2022-07-03T13:02:29;4.05;;;1.98;;
9238;SDS011;4654;43.242;27.976;2022-07-03T13:04:57;2.85;;;2.00;;
9238;SDS011;4654;43.242;27.976;2022-07-03T13:07:27;2.10;;;1.75;;
9238;SDS011;4654;43.242;27.976;2022-07-03T13:09:57;3.70;;;2.25;;
9238;SDS011;4654;43.242;27.976;2022-07-03T13:12:26;3.25;;;1.98;;
9238;SDS011;4654;43.242;27.976;2022-07-03T13:14:56;2.10;;;1.90;;
9238;SDS011;4654;43.242;27.976;2022-07-03T13:17:24;2.70;;;1.77;;
9238;SDS011;4654;43.242;27.976;2022-07-03T13:20:10;3.60;;;2.20;;
9238;SDS011;4654;43.242;27.976;2022-07-03T13:22:37;5.45;;;2.00;;
9238;SDS011;4654;43.242;27.976;2022-07-03T13:25:05;1.98;;;1.80;;
9238;SDS011;4654;43.242;27.976;2022-07-03T13:27:33;3.63;;;1.80;;
9238;SDS011;4654;43.242;27.976;2022-07-03T13:30:00;2.97;;;2.00;;
9238;SDS011;4654;43.242;27.976;2022-07-03T13:32:26;1.98;;;1.63;;
9238;SDS011;4654;43.242;27.976;2022-07-03T13:34:54;3.63;;;1.70;;
9238;SDS011;4654;43.242;27.976;2022-07-03T13:37:21;2.88;;;1.75;;
9238;SDS011;4654;43.242;27.976;2022-07-03T13:39:47;2.03;;;1.80;;
9238;SDS011;4654;43.242;27.976;2022-07-03T13:42:16;2.90;;;1.67;;
9238;SDS011;4654;43.242;27.976;2022-07-03T13:44:43;3.30;;;2.08;;
9238;SDS011;4654;43.242;27.976;2022-07-03T13:47:09;3.42;;;2.00;;
9238;SDS011;4654;43.242;27.976;2022-07-03T13:49:36;6.13;;;1.98;;
9238;SDS011;4654;43.242;27.976;2022-07-03T13:52:04;2.88;;;1.98;;
9238;SDS011;4654;43.242;27.976;2022-07-03T13:54:31;5.95;;;1.85;;
9238;SDS011;4654;43.242;27.976;2022-07-03T13:56:58;4.68;;;1.83;;
9238;SDS011;4654;43.242;27.976;2022-07-03T13:59:26;1.88;;;1.65;;
9238;SDS011;4654;43.242;27.976;2022-07-03T14:01:55;3.53;;;1.88;;
9238;SDS011;4654;43.242;27.976;2022-07-03T14:04:23;4.10;;;2.13;;
9238;SDS011;4654;43.242;27.976;2022-07-03T14:06:50;4.45;;;1.85;;
9238;SDS011;4654;43.242;27.976;2022-07-03T14:09:17;6.65;;;2.30;;
9238;SDS011;4654;43.242;27.976;2022-07-03T14:11:44;5.75;;;2.13;;
9238;SDS011;4654;43.242;27.976;2022-07-03T14:14:12;5.28;;;1.90;;
9238;SDS011;4654;43.242;27.976;2022-07-03T14:16:40;3.53;;;2.10;;
9238;SDS011;4654;43.242;27.976;2022-07-03T14:19:07;4.78;;;1.85;;
9238;SDS011;4654;43.242;27.976;2022-07-03T14:21:34;3.58;;;2.20;;
9238;SDS011;4654;43.242;27.976;2022-07-03T14:24:01;2.70;;;1.80;;
9238;SDS011;4654;43.242;27.976;2022-07-03T14:26:28;5.10;;;1.90;;
9238;SDS011;4654;43.242;27.976;2022-07-03T14:29:13;4.05;;;2.13;;
9238;SDS011;4654;43.242;27.976;2022-07-03T14:31:58;4.25;;;1.80;;
9238;SDS011;4654;43.242;27.976;2022-07-03T14:34:42;5.70;;;2.15;;
9238;SDS011;4654;43.242;27.976;2022-07-03T14:37:09;2.72;;;2.00;;
9238;SDS011;4654;43.242;27.976;2022-07-03T14:39:36;5.45;;;2.17;;
9238;SDS011;4654;43.242;27.976;2022-07-03T14:42:03;3.85;;;1.70;;
9238;SDS011;4654;43.242;27.976;2022-07-03T14:44:31;3.40;;;1.88;;
9238;SDS011;4654;43.242;27.976;2022-07-03T14:47:00;2.65;;;1.80;;
9238;SDS011;4654;43.242;27.976;2022-07-03T14:49:28;5.78;;;2.30;;
9238;SDS011;4654;43.242;27.976;2022-07-03T14:51:55;4.97;;;1.90;;
9238;SDS011;4654;43.242;27.976;2022-07-03T14:54:22;5.60;;;2.22;;
9238;SDS011;4654;43.242;27.976;2022-07-03T14:56:51;5.70;;;1.90;;
9238;SDS011;4654;43.242;27.976;2022-07-03T14:59:22;4.43;;;2.20;;
9238;SDS011;4654;43.242;27.976;2022-07-03T15:02:01;2.45;;;1.75;;
9238;SDS011;4654;43.242;27.976;2022-07-03T15:04:34;4.70;;;1.90;;
9238;SDS011;4654;43.242;27.976;2022-07-03T15:07:14;4.82;;;2.20;;
9238;SDS011;4654;43.242;27.976;2022-07-03T15:09:46;3.47;;;2.05;;
9238;SDS011;4654;43.242;27.976;2022-07-03T15:12:22;2.60;;;1.90;;
9238;SDS011;4654;43.242;27.976;2022-07-03T15:14:52;5.10;;;2.10;;
9238;SDS011;4654;43.242;27.976;2022-07-03T15:17:21;4.88;;;2.13;;
9238;SDS011;4654;43.242;27.976;2022-07-03T15:19:50;3.90;;;2.40;;
9238;SDS011;4654;43.242;27.976;2022-07-03T15:22:17;3.15;;;2.42;;